sensor_id;sensor_type;location;lat;lon;timestamp;P1;durP1;ratioP1;P2;durP2;ratioP2
20671;SDS011;10495;50.922;4.760;2023-04-01T00:00:53;2.70;;;1.20;;
20671;SDS011;10495;50.922;4.760;2023-04-01T00:03:21;4.23;;;1.30;;
20671;SDS011;10495;50.922;4.760;2023-04-01T00:05:47;3.47;;;1.40;;
20671;SDS011;10495;50.922;4.760;2023-04-01T00:08:14;3.57;;;1.10;;
20671;SDS011;10495;50.922;4.760;2023-04-01T00:10:40;3.63;;;1.30;;
20671;SDS011;10495;50.922;4.760;2023-04-01T00:13:05;2.77;;;1.17;;
20671;SDS011;10495;50.922;4.760;2023-04-01T00:15:31;3.90;;;1.43;;
20671;SDS011;10495;50.922;4.760;2023-04-01T00:17:57;3.87;;;1.23;;
20671;SDS011;10495;50.922;4.760;2023-04-01T00:20:23;3.30;;;1.30;;
20671;SDS011;10495;50.922;4.760;2023-04-01T00:22:49;3.33;;;2.20;;
20671;SDS011;10495;50.922;4.760;2023-04-01T00:25:15;4.43;;;1.43;;
20671;SDS011;10495;50.922;4.760;2023-04-01T00:27:41;3.47;;;1.20;;
20671;SDS011;10495;50.922;4.760;2023-04-01T00:30:07;4.10;;;1.20;;
20671;SDS011;10495;50.922;4.760;2023-04-01T00:32:34;3.60;;;1.40;;
20671;SDS011;10495;50.922;4.760;2023-04-01T00:35:00;6.03;;;1.33;;
20671;SDS011;10495;50.922;4.760;2023-04-01T00:37:26;3.00;;;1.10;;
20671;SDS011;10495;50.922;4.760;2023-04-01T00:39:53;3.00;;;1.20;;
20671;SDS011;10495;50.922;4.760;2023-04-01T00:42:18;3.30;;;1.00;;
20671;SDS011;10495;50.922;4.760;2023-04-01T00:44:45;4.70;;;1.40;;
20671;SDS011;10495;50.922;4.760;2023-04-01T00:47:18;4.67;;;1.30;;
20671;SDS011;10495;50.922;4.760;2023-04-01T00:49:45;4.03;;;1.77;;
20671;SDS011;10495;50.922;4.760;2023-04-01T00:52:15;2.40;;;1.10;;
20671;SDS011;10495;50.922;4.760;2023-04-01T00:54:48;6.70;;;1.97;;
20671;SDS011;10495;50.922;4.760;2023-04-01T00:57:19;5.13;;;1.20;;
20671;SDS011;10495;50.922;4.760;2023-04-01T00:59:56;4.60;;;1.20;;
20671;SDS011;10495;50.922;4.760;2023-04-01T01:02:22;3.90;;;1.13;;
20671;SDS011;10495;50.922;4.760;2023-04-01T01:04:48;4.17;;;1.17;;
20671;SDS011;10495;50.922;4.760;2023-04-01T01:15:20;4.73;;;1.13;;
20671;SDS011;10495;50.922;4.760;2023-04-01T01:21:09;5.03;;;1.30;;
20671;SDS011;10495;50.922;4.760;2023-04-01T01:36:45;2.53;;;1.20;;
20671;SDS011;10495;50.922;4.760;2023-04-01T01:39:17;3.73;;;1.50;;
20671;SDS011;10495;50.922;4.760;2023-04-01T01:41:45;2.13;;;1.37;;
20671;SDS011;10495;50.922;4.760;2023-04-01T01:44:14;5.17;;;1.77;;
20671;SDS011;10495;50.922;4.760;2023-04-01T01:46:42;2.03;;;1.50;;
20671;SDS011;10495;50.922;4.760;2023-04-01T01:49:10;3.73;;;1.30;;
20671;SDS011;10495;50.922;4.760;2023-04-01T01:51:38;5.20;;;1.57;;
20671;SDS011;10495;50.922;4.760;2023-04-01T01:54:04;3.33;;;1.30;;
20671;SDS011;10495;50.922;4.760;2023-04-01T01:56:30;4.50;;;1.30;;
20671;SDS011;10495;50.922;4.760;2023-04-01T01:59:02;3.40;;;1.67;;
20671;SDS011;10495;50.922;4.760;2023-04-01T02:01:31;2.07;;;1.47;;
20671;SDS011;10495;50.922;4.760;2023-04-01T02:04:00;2.07;;;1.37;;
20671;SDS011;10495;50.922;4.760;2023-04-01T02:06:28;4.47;;;1.50;;
20671;SDS011;10495;50.922;4.760;2023-04-01T02:08:59;4.97;;;1.57;;
20671;SDS011;10495;50.922;4.760;2023-04-01T02:14:18;3.40;;;1.20;;
20671;SDS011;10495;50.922;4.760;2023-04-01T02:16:55;1.77;;;1.17;;
20671;SDS011;10495;50.922;4.760;2023-04-01T02:19:24;1.20;;;1.10;;
20671;SDS011;10495;50.922;4.760;2023-04-01T02:21:57;2.13;;;1.00;;
20671;SDS011;10495;50.922;4.760;2023-04-01T02:24:26;2.63;;;1.50;;
20671;SDS011;10495;50.922;4.760;2023-04-01T02:26:55;2.37;;;1.57;;
20671;SDS011;10495;50.922;4.760;2023-04-01T02:29:21;5.67;;;1.43;;
20671;SDS011;10495;50.922;4.760;2023-04-01T02:31:50;4.30;;;2.00;;
20671;SDS011;10495;50.922;4.760;2023-04-01T02:34:17;4.07;;;2.20;;
20671;SDS011;10495;50.922;4.760;2023-04-01T02:36:44;3.27;;;1.90;;
20671;SDS011;10495;50.922;4.760;2023-04-01T02:39:09;3.43;;;2.07;;
20671;SDS011;10495;50.922;4.760;2023-04-01T02:41:42;4.93;;;2.17;;
20671;SDS011;10495;50.922;4.760;2023-04-01T02:44:09;3.07;;;1.80;;
20671;SDS011;10495;50.922;4.760;2023-04-01T02:46:36;3.70;;;2.23;;
20671;SDS011;10495;50.922;4.760;2023-04-01T02:49:02;3.83;;;2.30;;
20671;SDS011;10495;50.922;4.760;2023-04-01T02:51:28;4.27;;;2.10;;
20671;SDS011;10495;50.922;4.760;2023-04-01T02:53:54;3.10;;;1.90;;
20671;SDS011;10495;50.922;4.760;2023-04-01T02:56:20;4.60;;;1.77;;
20671;SDS011;10495;50.922;4.760;2023-04-01T02:58:46;4.23;;;1.80;;
20671;SDS011;10495;50.922;4.760;2023-04-01T03:01:12;4.20;;;1.80;;
20671;SDS011;10495;50.922;4.760;2023-04-01T03:03:38;2.97;;;1.80;;
20671;SDS011;10495;50.922;4.760;2023-04-01T03:06:07;2.90;;;1.90;;
20671;SDS011;10495;50.922;4.760;2023-04-01T03:08:34;5.80;;;2.00;;
20671;SDS011;10495;50.922;4.760;2023-04-01T03:11:00;5.83;;;2.13;;
20671;SDS011;10495;50.922;4.760;2023-04-01T03:13:26;6.07;;;1.90;;
20671;SDS011;10495;50.922;4.760;2023-04-01T03:15:52;2.00;;;1.43;;
20671;SDS011;10495;50.922;4.760;2023-04-01T03:18:18;4.97;;;2.17;;
20671;SDS011;10495;50.922;4.760;2023-04-01T03:20:43;5.43;;;2.20;;
20671;SDS011;10495;50.922;4.760;2023-04-01T03:23:09;4.27;;;1.97;;
20671;SDS011;10495;50.922;4.760;2023-04-01T03:25:35;3.83;;;2.13;;
20671;SDS011;10495;50.922;4.760;2023-04-01T03:28:01;3.37;;;2.10;;
20671;SDS011;10495;50.922;4.760;2023-04-01T03:30:27;5.33;;;2.03;;
20671;SDS011;10495;50.922;4.760;2023-04-01T03:32:54;5.70;;;1.93;;
20671;SDS011;10495;50.922;4.760;2023-04-01T03:35:20;3.57;;;2.10;;
20671;SDS011;10495;50.922;4.760;2023-04-01T03:37:46;4.20;;;2.13;;
20671;SDS011;10495;50.922;4.760;2023-04-01T03:40:12;3.30;;;2.00;;
20671;SDS011;10495;50.922;4.760;2023-04-01T03:42:37;6.73;;;2.57;;
20671;SDS011;10495;50.922;4.760;2023-04-01T03:45:03;5.03;;;2.63;;
20671;SDS011;10495;50.922;4.760;2023-04-01T03:47:30;5.03;;;2.80;;
20671;SDS011;10495;50.922;4.760;2023-04-01T03:49:55;7.90;;;3.00;;
20671;SDS011;10495;50.922;4.760;2023-04-01T03:52:21;4.57;;;2.40;;
20671;SDS011;10495;50.922;4.760;2023-04-01T03:54:47;5.77;;;2.90;;
20671;SDS011;10495;50.922;4.760;2023-04-01T03:57:12;5.80;;;2.60;;
20671;SDS011;10495;50.922;4.760;2023-04-01T03:59:38;7.37;;;2.90;;
20671;SDS011;10495;50.922;4.760;2023-04-01T04:02:04;7.63;;;3.20;;
20671;SDS011;10495;50.922;4.760;2023-04-01T04:04:30;8.97;;;3.50;;
20671;SDS011;10495;50.922;4.760;2023-04-01T04:06:57;8.57;;;3.57;;
20671;SDS011;10495;50.922;4.760;2023-04-01T04:09:23;7.33;;;3.40;;
20671;SDS011;10495;50.922;4.760;2023-04-01T04:11:49;7.50;;;3.73;;
20671;SDS011;10495;50.922;4.760;2023-04-01T04:14:15;9.63;;;3.70;;
20671;SDS011;10495;50.922;4.760;2023-04-01T04:16:40;7.87;;;4.20;;
20671;SDS011;10495;50.922;4.760;2023-04-01T04:19:06;8.57;;;4.20;;
20671;SDS011;10495;50.922;4.760;2023-04-01T04:21:32;7.03;;;3.53;;
20671;SDS011;10495;50.922;4.760;2023-04-01T04:23:58;9.93;;;4.63;;
20671;SDS011;10495;50.922;4.760;2023-04-01T04:26:25;10.83;;;4.77;;
20671;SDS011;10495;50.922;4.760;2023-04-01T04:28:51;8.47;;;4.63;;
20671;SDS011;10495;50.922;4.760;2023-04-01T04:31:20;8.10;;;4.97;;
20671;SDS011;10495;50.922;4.760;2023-04-01T04:33:47;14.40;;;4.67;;
20671;SDS011;10495;50.922;4.760;2023-04-01T04:36:13;11.63;;;4.60;;
20671;SDS011;10495;50.922;4.760;2023-04-01T04:38:39;8.67;;;4.80;;
20671;SDS011;10495;50.922;4.760;2023-04-01T04:41:09;7.80;;;4.70;;
20671;SDS011;10495;50.922;4.760;2023-04-01T04:43:35;8.20;;;4.90;;
20671;SDS011;10495;50.922;4.760;2023-04-01T04:46:04;8.33;;;4.90;;
20671;SDS011;10495;50.922;4.760;2023-04-01T04:48:31;8.03;;;4.80;;
20671;SDS011;10495;50.922;4.760;2023-04-01T04:50:56;12.87;;;5.27;;
20671;SDS011;10495;50.922;4.760;2023-04-01T04:53:22;10.33;;;4.83;;
20671;SDS011;10495;50.922;4.760;2023-04-01T04:55:48;9.20;;;4.30;;
20671;SDS011;10495;50.922;4.760;2023-04-01T04:58:15;8.30;;;3.63;;
20671;SDS011;10495;50.922;4.760;2023-04-01T05:00:41;6.27;;;4.10;;
20671;SDS011;10495;50.922;4.760;2023-04-01T05:03:07;8.20;;;3.53;;
20671;SDS011;10495;50.922;4.760;2023-04-01T05:05:33;5.60;;;3.40;;
20671;SDS011;10495;50.922;4.760;2023-04-01T05:07:59;4.27;;;3.03;;
20671;SDS011;10495;50.922;4.760;2023-04-01T05:10:25;4.63;;;3.13;;
20671;SDS011;10495;50.922;4.760;2023-04-01T05:12:50;5.53;;;3.53;;
20671;SDS011;10495;50.922;4.760;2023-04-01T05:15:16;9.17;;;3.67;;
20671;SDS011;10495;50.922;4.760;2023-04-01T05:17:42;5.07;;;3.20;;
20671;SDS011;10495;50.922;4.760;2023-04-01T05:20:07;5.60;;;2.80;;
20671;SDS011;10495;50.922;4.760;2023-04-01T05:22:33;5.70;;;3.47;;
20671;SDS011;10495;50.922;4.760;2023-04-01T05:24:59;5.10;;;3.33;;
20671;SDS011;10495;50.922;4.760;2023-04-01T05:27:25;4.50;;;2.87;;
20671;SDS011;10495;50.922;4.760;2023-04-01T05:29:50;3.40;;;2.67;;
20671;SDS011;10495;50.922;4.760;2023-04-01T05:32:16;3.30;;;2.40;;
20671;SDS011;10495;50.922;4.760;2023-04-01T05:34:41;2.70;;;1.90;;
20671;SDS011;10495;50.922;4.760;2023-04-01T05:37:07;4.40;;;2.20;;
20671;SDS011;10495;50.922;4.760;2023-04-01T05:39:39;2.80;;;2.30;;
20671;SDS011;10495;50.922;4.760;2023-04-01T05:42:05;3.00;;;2.20;;
20671;SDS011;10495;50.922;4.760;2023-04-01T05:44:32;5.07;;;2.27;;
20671;SDS011;10495;50.922;4.760;2023-04-01T05:46:58;3.90;;;2.00;;
20671;SDS011;10495;50.922;4.760;2023-04-01T05:49:24;3.27;;;2.13;;
20671;SDS011;10495;50.922;4.760;2023-04-01T05:51:49;2.70;;;1.53;;
20671;SDS011;10495;50.922;4.760;2023-04-01T05:54:16;2.23;;;1.87;;
20671;SDS011;10495;50.922;4.760;2023-04-01T05:56:41;1.60;;;1.50;;
20671;SDS011;10495;50.922;4.760;2023-04-01T05:59:09;1.50;;;1.30;;
20671;SDS011;10495;50.922;4.760;2023-04-01T06:01:35;1.73;;;1.17;;
20671;SDS011;10495;50.922;4.760;2023-04-01T06:04:01;1.67;;;1.30;;
20671;SDS011;10495;50.922;4.760;2023-04-01T06:06:28;1.43;;;1.17;;
20671;SDS011;10495;50.922;4.760;2023-04-01T06:08:57;3.03;;;1.27;;
20671;SDS011;10495;50.922;4.760;2023-04-01T06:11:48;1.10;;;1.00;;
20671;SDS011;10495;50.922;4.760;2023-04-01T06:28:07;2.33;;;1.90;;
20671;SDS011;10495;50.922;4.760;2023-04-01T06:31:12;2.40;;;1.97;;
20671;SDS011;10495;50.922;4.760;2023-04-01T06:37:06;3.13;;;2.37;;
20671;SDS011;10495;50.922;4.760;2023-04-01T06:45:22;5.87;;;2.93;;
20671;SDS011;10495;50.922;4.760;2023-04-01T06:48:06;6.07;;;2.63;;
20671;SDS011;10495;50.922;4.760;2023-04-01T06:51:01;4.47;;;2.43;;
20671;SDS011;10495;50.922;4.760;2023-04-01T06:56:12;3.20;;;2.30;;
20671;SDS011;10495;50.922;4.760;2023-04-01T06:58:42;5.17;;;2.83;;
20671;SDS011;10495;50.922;4.760;2023-04-01T07:01:14;3.00;;;2.03;;
20671;SDS011;10495;50.922;4.760;2023-04-01T07:04:10;3.20;;;2.70;;
20671;SDS011;10495;50.922;4.760;2023-04-01T07:06:37;4.93;;;2.17;;
20671;SDS011;10495;50.922;4.760;2023-04-01T07:09:34;2.30;;;2.10;;
20671;SDS011;10495;50.922;4.760;2023-04-01T07:12:10;1.93;;;1.73;;
20671;SDS011;10495;50.922;4.760;2023-04-01T07:14:43;3.70;;;2.00;;
20671;SDS011;10495;50.922;4.760;2023-04-01T07:17:18;2.07;;;1.90;;
20671;SDS011;10495;50.922;4.760;2023-04-01T07:19:58;2.10;;;1.40;;
20671;SDS011;10495;50.922;4.760;2023-04-01T07:22:41;2.60;;;1.40;;
20671;SDS011;10495;50.922;4.760;2023-04-01T07:25:14;2.53;;;1.30;;
20671;SDS011;10495;50.922;4.760;2023-04-01T07:27:42;2.57;;;1.57;;
20671;SDS011;10495;50.922;4.760;2023-04-01T07:30:16;3.47;;;1.70;;
20671;SDS011;10495;50.922;4.760;2023-04-01T07:32:57;1.50;;;1.30;;
20671;SDS011;10495;50.922;4.760;2023-04-01T07:35:33;2.47;;;2.00;;
20671;SDS011;10495;50.922;4.760;2023-04-01T07:38:16;2.67;;;1.10;;
20671;SDS011;10495;50.922;4.760;2023-04-01T07:51:42;1.80;;;1.10;;
20671;SDS011;10495;50.922;4.760;2023-04-01T07:54:14;1.67;;;1.30;;
20671;SDS011;10495;50.922;4.760;2023-04-01T07:56:51;2.93;;;1.10;;
20671;SDS011;10495;50.922;4.760;2023-04-01T08:02:28;2.70;;;1.17;;
20671;SDS011;10495;50.922;4.760;2023-04-01T08:15:28;1.90;;;1.03;;
20671;SDS011;10495;50.922;4.760;2023-04-01T08:20:56;0.97;;;0.80;;
20671;SDS011;10495;50.922;4.760;2023-04-01T08:23:28;2.20;;;0.97;;
20671;SDS011;10495;50.922;4.760;2023-04-01T08:34:19;0.77;;;0.77;;
20671;SDS011;10495;50.922;4.760;2023-04-01T08:37:23;0.80;;;0.80;;
20671;SDS011;10495;50.922;4.760;2023-04-01T08:45:14;0.70;;;0.60;;
20671;SDS011;10495;50.922;4.760;2023-04-01T08:48:13;0.80;;;0.80;;
20671;SDS011;10495;50.922;4.760;2023-04-01T08:56:31;1.70;;;0.70;;
20671;SDS011;10495;50.922;4.760;2023-04-01T09:22:42;0.80;;;0.80;;
20671;SDS011;10495;50.922;4.760;2023-04-01T09:34:06;0.87;;;0.80;;
20671;SDS011;10495;50.922;4.760;2023-04-01T09:39:36;2.80;;;0.80;;
20671;SDS011;10495;50.922;4.760;2023-04-01T09:50:31;1.10;;;1.00;;
20671;SDS011;10495;50.922;4.760;2023-04-01T10:07:43;1.40;;;1.30;;
20671;SDS011;10495;50.922;4.760;2023-04-01T10:18:56;2.40;;;2.10;;
20671;SDS011;10495;50.922;4.760;2023-04-01T10:30:14;3.00;;;2.30;;
20671;SDS011;10495;50.922;4.760;2023-04-01T10:32:59;8.50;;;2.27;;
20671;SDS011;10495;50.922;4.760;2023-04-01T10:50:04;2.53;;;2.17;;
20671;SDS011;10495;50.922;4.760;2023-04-01T10:52:53;3.30;;;1.90;;
20671;SDS011;10495;50.922;4.760;2023-04-01T11:15:41;1.30;;;1.20;;
20671;SDS011;10495;50.922;4.760;2023-04-01T11:29:09;2.33;;;1.20;;
20671;SDS011;10495;50.922;4.760;2023-04-01T11:40:41;1.30;;;1.17;;
20671;SDS011;10495;50.922;4.760;2023-04-01T11:52:15;3.13;;;1.30;;
20671;SDS011;10495;50.922;4.760;2023-04-01T12:00:25;1.67;;;1.30;;
20671;SDS011;10495;50.922;4.760;2023-04-01T12:05:58;1.30;;;1.20;;
20671;SDS011;10495;50.922;4.760;2023-04-01T12:16:50;1.80;;;1.13;;
20671;SDS011;10495;50.922;4.760;2023-04-01T12:28:13;2.50;;;0.93;;
20671;SDS011;10495;50.922;4.760;2023-04-01T12:55:40;0.87;;;0.80;;
20671;SDS011;10495;50.922;4.760;2023-04-01T13:12:24;1.23;;;1.00;;
20671;SDS011;10495;50.922;4.760;2023-04-01T13:15:19;0.93;;;0.87;;
20671;SDS011;10495;50.922;4.760;2023-04-01T13:20:52;0.50;;;0.50;;
20671;SDS011;10495;50.922;4.760;2023-04-01T13:26:28;0.60;;;0.60;;
20671;SDS011;10495;50.922;4.760;2023-04-01T13:34:51;1.33;;;1.00;;
20671;SDS011;10495;50.922;4.760;2023-04-01T13:51:23;0.50;;;0.50;;
20671;SDS011;10495;50.922;4.760;2023-04-01T13:54:00;0.60;;;0.50;;
20671;SDS011;10495;50.922;4.760;2023-04-01T14:02:24;1.30;;;1.00;;
20671;SDS011;10495;50.922;4.760;2023-04-01T14:11:17;1.17;;;0.80;;
20671;SDS011;10495;50.922;4.760;2023-04-01T14:45:12;3.70;;;3.10;;
20671;SDS011;10495;50.922;4.760;2023-04-01T14:47:59;3.57;;;3.27;;
20671;SDS011;10495;50.922;4.760;2023-04-01T14:50:48;3.27;;;2.90;;
20671;SDS011;10495;50.922;4.760;2023-04-01T14:55:52;4.23;;;3.83;;
20671;SDS011;10495;50.922;4.760;2023-04-01T14:58:21;5.23;;;3.50;;
20671;SDS011;10495;50.922;4.760;2023-04-01T15:06:27;5.73;;;3.57;;
20671;SDS011;10495;50.922;4.760;2023-04-01T15:11:59;5.77;;;4.07;;
20671;SDS011;10495;50.922;4.760;2023-04-01T15:17:43;5.00;;;3.20;;
20671;SDS011;10495;50.922;4.760;2023-04-01T15:23:13;4.37;;;3.10;;
20671;SDS011;10495;50.922;4.760;2023-04-01T15:29:21;4.87;;;4.10;;
20671;SDS011;10495;50.922;4.760;2023-04-01T15:45:42;4.40;;;4.00;;
20671;SDS011;10495;50.922;4.760;2023-04-01T15:51:01;6.60;;;4.80;;
20671;SDS011;10495;50.922;4.760;2023-04-01T16:05:13;5.10;;;4.33;;
20671;SDS011;10495;50.922;4.760;2023-04-01T16:07:56;4.47;;;3.90;;
20671;SDS011;10495;50.922;4.760;2023-04-01T16:11:22;3.53;;;3.23;;
20671;SDS011;10495;50.922;4.760;2023-04-01T16:22:08;2.23;;;2.03;;
20671;SDS011;10495;50.922;4.760;2023-04-01T16:24:54;2.37;;;1.93;;
20671;SDS011;10495;50.922;4.760;2023-04-01T16:30:38;2.43;;;2.00;;
20671;SDS011;10495;50.922;4.760;2023-04-01T16:41:50;2.70;;;1.73;;
20671;SDS011;10495;50.922;4.760;2023-04-01T16:44:27;3.03;;;2.50;;
20671;SDS011;10495;50.922;4.760;2023-04-01T16:46:54;5.63;;;2.30;;
20671;SDS011;10495;50.922;4.760;2023-04-01T16:49:30;3.10;;;2.30;;
20671;SDS011;10495;50.922;4.760;2023-04-01T16:54:29;2.70;;;1.87;;
20671;SDS011;10495;50.922;4.760;2023-04-01T16:57:12;3.20;;;2.53;;
20671;SDS011;10495;50.922;4.760;2023-04-01T16:59:47;3.27;;;2.50;;
20671;SDS011;10495;50.922;4.760;2023-04-01T17:02:35;3.70;;;3.17;;
20671;SDS011;10495;50.922;4.760;2023-04-01T17:05:13;5.70;;;3.57;;
20671;SDS011;10495;50.922;4.760;2023-04-01T17:07:59;5.20;;;3.03;;
20671;SDS011;10495;50.922;4.760;2023-04-01T17:10:44;3.90;;;2.93;;
20671;SDS011;10495;50.922;4.760;2023-04-01T17:19:26;3.70;;;2.40;;
20671;SDS011;10495;50.922;4.760;2023-04-01T17:22:13;4.67;;;3.07;;
20671;SDS011;10495;50.922;4.760;2023-04-01T17:35:58;5.00;;;3.97;;
20671;SDS011;10495;50.922;4.760;2023-04-01T17:49:27;5.17;;;4.30;;
20671;SDS011;10495;50.922;4.760;2023-04-01T17:52:19;5.40;;;4.10;;
20671;SDS011;10495;50.922;4.760;2023-04-01T17:58:17;5.30;;;4.10;;
20671;SDS011;10495;50.922;4.760;2023-04-01T18:01:08;4.37;;;3.97;;
20671;SDS011;10495;50.922;4.760;2023-04-01T18:06:59;4.10;;;3.70;;
20671;SDS011;10495;50.922;4.760;2023-04-01T18:23:09;4.70;;;3.97;;
20671;SDS011;10495;50.922;4.760;2023-04-01T18:25:47;4.40;;;4.00;;
20671;SDS011;10495;50.922;4.760;2023-04-01T18:31:39;4.40;;;3.77;;
20671;SDS011;10495;50.922;4.760;2023-04-01T18:34:00;4.27;;;3.87;;
20671;SDS011;10495;50.922;4.760;2023-04-01T18:36:40;4.33;;;3.93;;
20671;SDS011;10495;50.922;4.760;2023-04-01T18:39:14;4.37;;;3.97;;
20671;SDS011;10495;50.922;4.760;2023-04-01T18:41:59;5.47;;;4.27;;
20671;SDS011;10495;50.922;4.760;2023-04-01T18:44:50;5.27;;;4.20;;
20671;SDS011;10495;50.922;4.760;2023-04-01T18:47:37;5.53;;;4.80;;
20671;SDS011;10495;50.922;4.760;2023-04-01T18:50:28;4.03;;;3.63;;
20671;SDS011;10495;50.922;4.760;2023-04-01T18:53:10;5.40;;;4.50;;
20671;SDS011;10495;50.922;4.760;2023-04-01T19:01:51;4.80;;;4.40;;
20671;SDS011;10495;50.922;4.760;2023-04-01T19:04:39;6.03;;;5.10;;
20671;SDS011;10495;50.922;4.760;2023-04-01T19:15:57;6.80;;;4.70;;
20671;SDS011;10495;50.922;4.760;2023-04-01T19:26:45;8.27;;;5.13;;
20671;SDS011;10495;50.922;4.760;2023-04-01T19:32:14;6.13;;;5.40;;
20671;SDS011;10495;50.922;4.760;2023-04-01T19:42:44;10.77;;;6.00;;
20671;SDS011;10495;50.922;4.760;2023-04-01T19:47:58;5.87;;;4.87;;
20671;SDS011;10495;50.922;4.760;2023-04-01T19:53:11;8.47;;;5.20;;
20671;SDS011;10495;50.922;4.760;2023-04-01T19:55:56;7.80;;;5.27;;
20671;SDS011;10495;50.922;4.760;2023-04-01T19:58:58;9.20;;;5.20;;
20671;SDS011;10495;50.922;4.760;2023-04-01T20:01:50;6.53;;;5.07;;
20671;SDS011;10495;50.922;4.760;2023-04-01T20:04:29;6.37;;;5.07;;
20671;SDS011;10495;50.922;4.760;2023-04-01T20:07:15;8.67;;;5.97;;
20671;SDS011;10495;50.922;4.760;2023-04-01T20:10:11;8.13;;;5.90;;
20671;SDS011;10495;50.922;4.760;2023-04-01T20:17:59;10.00;;;5.97;;
20671;SDS011;10495;50.922;4.760;2023-04-01T20:20:29;7.80;;;5.87;;
20671;SDS011;10495;50.922;4.760;2023-04-01T20:23:02;7.90;;;5.37;;
20671;SDS011;10495;50.922;4.760;2023-04-01T20:25:43;8.40;;;6.00;;
20671;SDS011;10495;50.922;4.760;2023-04-01T20:33:30;8.53;;;6.90;;
20671;SDS011;10495;50.922;4.760;2023-04-01T20:45:10;9.73;;;7.23;;
20671;SDS011;10495;50.922;4.760;2023-04-01T20:53:20;12.07;;;8.10;;
20671;SDS011;10495;50.922;4.760;2023-04-01T20:59:02;13.17;;;8.93;;
20671;SDS011;10495;50.922;4.760;2023-04-01T21:04:26;14.10;;;10.10;;
20671;SDS011;10495;50.922;4.760;2023-04-01T21:12:37;12.30;;;8.97;;
20671;SDS011;10495;50.922;4.760;2023-04-01T21:20:40;12.07;;;9.03;;
20671;SDS011;10495;50.922;4.760;2023-04-01T21:37:26;9.43;;;7.07;;
20671;SDS011;10495;50.922;4.760;2023-04-01T21:42:28;9.73;;;7.30;;
20671;SDS011;10495;50.922;4.760;2023-04-01T21:45:09;10.77;;;7.10;;
20671;SDS011;10495;50.922;4.760;2023-04-01T21:50:44;8.80;;;6.97;;
20671;SDS011;10495;50.922;4.760;2023-04-01T21:56:06;12.33;;;8.87;;
20671;SDS011;10495;50.922;4.760;2023-04-01T22:04:36;13.33;;;9.60;;
20671;SDS011;10495;50.922;4.760;2023-04-01T22:07:15;15.03;;;10.53;;
20671;SDS011;10495;50.922;4.760;2023-04-01T22:12:23;14.70;;;10.80;;
20671;SDS011;10495;50.922;4.760;2023-04-01T22:20:31;14.77;;;10.13;;
20671;SDS011;10495;50.922;4.760;2023-04-01T22:28:32;11.43;;;8.77;;
20671;SDS011;10495;50.922;4.760;2023-04-01T22:31:08;10.90;;;8.23;;
20671;SDS011;10495;50.922;4.760;2023-04-01T22:45:15;10.83;;;8.63;;
20671;SDS011;10495;50.922;4.760;2023-04-01T22:50:33;11.20;;;8.37;;
20671;SDS011;10495;50.922;4.760;2023-04-01T22:53:05;11.43;;;8.57;;
20671;SDS011;10495;50.922;4.760;2023-04-01T22:55:37;12.37;;;8.20;;
20671;SDS011;10495;50.922;4.760;2023-04-01T22:58:12;10.57;;;7.50;;
20671;SDS011;10495;50.922;4.760;2023-04-01T23:00:43;10.77;;;8.17;;
20671;SDS011;10495;50.922;4.760;2023-04-01T23:03:22;9.20;;;7.33;;
20671;SDS011;10495;50.922;4.760;2023-04-01T23:05:56;10.67;;;7.77;;
20671;SDS011;10495;50.922;4.760;2023-04-01T23:19:54;12.63;;;9.67;;
20671;SDS011;10495;50.922;4.760;2023-04-01T23:22:34;12.50;;;9.57;;
20671;SDS011;10495;50.922;4.760;2023-04-01T23:27:49;11.90;;;8.77;;
20671;SDS011;10495;50.922;4.760;2023-04-01T23:38:19;9.33;;;6.87;;
20671;SDS011;10495;50.922;4.760;2023-04-01T23:40:51;8.83;;;6.90;;
20671;SDS011;10495;50.922;4.760;2023-04-01T23:43:22;8.93;;;7.17;;
20671;SDS011;10495;50.922;4.760;2023-04-01T23:46:02;9.47;;;6.77;;
20671;SDS011;10495;50.922;4.760;2023-04-01T23:48:33;9.03;;;6.93;;
20671;SDS011;10495;50.922;4.760;2023-04-01T23:51:27;8.40;;;6.50;;
20671;SDS011;10495;50.922;4.760;2023-04-01T23:54:10;10.20;;;6.33;;
20671;SDS011;10495;50.922;4.760;2023-04-01T23:56:43;7.67;;;5.63;;
20671;SDS011;10495;50.922;4.760;2023-04-01T23:59:18;8.67;;;4.97;;
